sensor_id;sensor_type;location;lat;lon;timestamp;P1;durP1;ratioP1;P2;durP2;ratioP2
61756;SDS011;57225;61.460;24.060;2023-01-10T00:00:18;23.58;;;8.45;;
61756;SDS011;57225;61.460;24.060;2023-01-10T00:03:04;29.80;;;9.32;;
61756;SDS011;57225;61.460;24.060;2023-01-10T00:05:51;24.60;;;8.80;;
61756;SDS011;57225;61.460;24.060;2023-01-10T00:08:35;28.73;;;8.52;;
61756;SDS011;57225;61.460;24.060;2023-01-10T00:11:19;25.35;;;9.27;;
61756;SDS011;57225;61.460;24.060;2023-01-10T00:14:22;30.50;;;9.20;;
61756;SDS011;57225;61.460;24.060;2023-01-10T00:17:08;25.60;;;9.25;;
61756;SDS011;57225;61.460;24.060;2023-01-10T00:19:53;22.15;;;9.50;;
61756;SDS011;57225;61.460;24.060;2023-01-10T00:22:37;30.77;;;8.73;;
61756;SDS011;57225;61.460;24.060;2023-01-10T00:25:22;28.92;;;9.68;;
61756;SDS011;57225;61.460;24.060;2023-01-10T00:28:07;25.63;;;9.60;;
61756;SDS011;57225;61.460;24.060;2023-01-10T00:31:02;26.80;;;9.32;;
61756;SDS011;57225;61.460;24.060;2023-01-10T00:33:50;24.13;;;9.32;;
61756;SDS011;57225;61.460;24.060;2023-01-10T00:36:35;23.30;;;9.13;;
61756;SDS011;57225;61.460;24.060;2023-01-10T00:39:19;27.00;;;9.65;;
61756;SDS011;57225;61.460;24.060;2023-01-10T00:42:04;23.77;;;8.98;;
61756;SDS011;57225;61.460;24.060;2023-01-10T00:45:07;35.10;;;10.20;;
61756;SDS011;57225;61.460;24.060;2023-01-10T00:47:52;24.13;;;8.77;;
61756;SDS011;57225;61.460;24.060;2023-01-10T00:50:37;29.42;;;9.43;;
61756;SDS011;57225;61.460;24.060;2023-01-10T00:53:21;28.92;;;9.40;;
61756;SDS011;57225;61.460;24.060;2023-01-10T00:56:06;28.95;;;9.20;;
61756;SDS011;57225;61.460;24.060;2023-01-10T00:58:50;25.48;;;9.45;;
61756;SDS011;57225;61.460;24.060;2023-01-10T01:01:35;26.38;;;9.85;;
61756;SDS011;57225;61.460;24.060;2023-01-10T01:04:19;26.75;;;9.98;;
61756;SDS011;57225;61.460;24.060;2023-01-10T01:07:04;29.77;;;9.88;;
61756;SDS011;57225;61.460;24.060;2023-01-10T01:09:48;26.67;;;9.55;;
61756;SDS011;57225;61.460;24.060;2023-01-10T01:12:56;24.88;;;9.27;;
61756;SDS011;57225;61.460;24.060;2023-01-10T01:15:42;27.67;;;9.40;;
61756;SDS011;57225;61.460;24.060;2023-01-10T01:18:26;25.88;;;9.60;;
61756;SDS011;57225;61.460;24.060;2023-01-10T01:21:11;27.40;;;9.02;;
61756;SDS011;57225;61.460;24.060;2023-01-10T01:23:55;27.58;;;9.27;;
61756;SDS011;57225;61.460;24.060;2023-01-10T01:26:40;21.50;;;8.48;;
61756;SDS011;57225;61.460;24.060;2023-01-10T01:29:25;30.10;;;9.82;;
61756;SDS011;57225;61.460;24.060;2023-01-10T01:32:09;22.33;;;8.73;;
61756;SDS011;57225;61.460;24.060;2023-01-10T01:34:54;23.25;;;8.75;;
61756;SDS011;57225;61.460;24.060;2023-01-10T01:37:39;24.90;;;8.43;;
61756;SDS011;57225;61.460;24.060;2023-01-10T01:40:24;20.63;;;8.32;;
61756;SDS011;57225;61.460;24.060;2023-01-10T01:43:25;22.65;;;8.68;;
61756;SDS011;57225;61.460;24.060;2023-01-10T01:46:10;22.48;;;7.93;;
61756;SDS011;57225;61.460;24.060;2023-01-10T01:48:55;27.80;;;8.07;;
61756;SDS011;57225;61.460;24.060;2023-01-10T01:51:39;20.98;;;8.23;;
61756;SDS011;57225;61.460;24.060;2023-01-10T01:54:28;22.17;;;7.85;;
61756;SDS011;57225;61.460;24.060;2023-01-10T01:57:16;20.40;;;8.00;;
61756;SDS011;57225;61.460;24.060;2023-01-10T02:00:06;21.45;;;7.40;;
61756;SDS011;57225;61.460;24.060;2023-01-10T02:02:52;16.73;;;7.68;;
61756;SDS011;57225;61.460;24.060;2023-01-10T02:05:39;21.73;;;7.55;;
61756;SDS011;57225;61.460;24.060;2023-01-10T02:08:25;24.75;;;8.27;;
61756;SDS011;57225;61.460;24.060;2023-01-10T02:11:09;24.70;;;7.18;;
61756;SDS011;57225;61.460;24.060;2023-01-10T02:13:54;21.50;;;8.20;;
61756;SDS011;57225;61.460;24.060;2023-01-10T02:16:40;21.88;;;7.50;;
61756;SDS011;57225;61.460;24.060;2023-01-10T02:25:26;17.60;;;6.88;;
61756;SDS011;57225;61.460;24.060;2023-01-10T02:41:00;20.38;;;7.50;;
61756;SDS011;57225;61.460;24.060;2023-01-10T02:43:50;20.27;;;7.53;;
61756;SDS011;57225;61.460;24.060;2023-01-10T02:46:40;19.25;;;7.07;;
61756;SDS011;57225;61.460;24.060;2023-01-10T02:49:27;22.40;;;7.03;;
61756;SDS011;57225;61.460;24.060;2023-01-10T02:52:12;19.17;;;7.32;;
61756;SDS011;57225;61.460;24.060;2023-01-10T02:55:02;17.98;;;7.45;;
61756;SDS011;57225;61.460;24.060;2023-01-10T02:57:52;22.10;;;8.15;;
61756;SDS011;57225;61.460;24.060;2023-01-10T03:07:19;22.90;;;7.25;;
61756;SDS011;57225;61.460;24.060;2023-01-10T03:10:18;19.52;;;7.03;;
61756;SDS011;57225;61.460;24.060;2023-01-10T03:13:11;16.67;;;6.55;;
61756;SDS011;57225;61.460;24.060;2023-01-10T03:16:02;17.10;;;6.28;;
61756;SDS011;57225;61.460;24.060;2023-01-10T03:18:53;20.65;;;7.63;;
61756;SDS011;57225;61.460;24.060;2023-01-10T03:21:41;18.40;;;7.28;;
61756;SDS011;57225;61.460;24.060;2023-01-10T03:24:34;16.52;;;6.78;;
61756;SDS011;57225;61.460;24.060;2023-01-10T03:33:27;18.17;;;6.70;;
61756;SDS011;57225;61.460;24.060;2023-01-10T03:45:12;21.33;;;6.78;;
61756;SDS011;57225;61.460;24.060;2023-01-10T03:47:58;16.23;;;7.10;;
61756;SDS011;57225;61.460;24.060;2023-01-10T03:50:47;18.35;;;6.88;;
61756;SDS011;57225;61.460;24.060;2023-01-10T03:53:34;15.90;;;6.55;;
61756;SDS011;57225;61.460;24.060;2023-01-10T03:56:21;17.35;;;6.53;;
61756;SDS011;57225;61.460;24.060;2023-01-10T03:59:05;21.17;;;6.97;;
61756;SDS011;57225;61.460;24.060;2023-01-10T04:01:50;18.83;;;6.82;;
61756;SDS011;57225;61.460;24.060;2023-01-10T04:04:35;23.10;;;6.72;;
61756;SDS011;57225;61.460;24.060;2023-01-10T04:07:19;16.77;;;6.50;;
61756;SDS011;57225;61.460;24.060;2023-01-10T04:10:04;19.13;;;7.13;;
61756;SDS011;57225;61.460;24.060;2023-01-10T04:12:49;19.50;;;7.30;;
61756;SDS011;57225;61.460;24.060;2023-01-10T04:15:33;19.73;;;7.63;;
61756;SDS011;57225;61.460;24.060;2023-01-10T04:18:18;17.80;;;7.45;;
61756;SDS011;57225;61.460;24.060;2023-01-10T04:21:02;18.38;;;7.03;;
61756;SDS011;57225;61.460;24.060;2023-01-10T04:23:47;18.63;;;6.93;;
61756;SDS011;57225;61.460;24.060;2023-01-10T04:26:31;21.52;;;7.78;;
61756;SDS011;57225;61.460;24.060;2023-01-10T04:29:16;23.27;;;8.15;;
61756;SDS011;57225;61.460;24.060;2023-01-10T04:32:00;19.95;;;8.02;;
61756;SDS011;57225;61.460;24.060;2023-01-10T04:34:44;19.83;;;8.50;;
61756;SDS011;57225;61.460;24.060;2023-01-10T04:37:29;22.67;;;8.63;;
61756;SDS011;57225;61.460;24.060;2023-01-10T04:40:13;22.77;;;9.00;;
61756;SDS011;57225;61.460;24.060;2023-01-10T04:43:01;22.00;;;8.60;;
61756;SDS011;57225;61.460;24.060;2023-01-10T04:45:46;27.10;;;9.30;;
61756;SDS011;57225;61.460;24.060;2023-01-10T04:48:30;21.30;;;7.88;;
61756;SDS011;57225;61.460;24.060;2023-01-10T04:51:15;23.98;;;9.25;;
61756;SDS011;57225;61.460;24.060;2023-01-10T04:53:59;24.77;;;9.25;;
61756;SDS011;57225;61.460;24.060;2023-01-10T04:56:44;24.23;;;9.35;;
61756;SDS011;57225;61.460;24.060;2023-01-10T04:59:28;24.90;;;9.05;;
61756;SDS011;57225;61.460;24.060;2023-01-10T05:02:12;28.15;;;9.27;;
61756;SDS011;57225;61.460;24.060;2023-01-10T05:04:57;23.52;;;9.05;;
61756;SDS011;57225;61.460;24.060;2023-01-10T05:07:42;24.42;;;9.45;;
61756;SDS011;57225;61.460;24.060;2023-01-10T05:10:30;22.88;;;9.68;;
61756;SDS011;57225;61.460;24.060;2023-01-10T05:13:14;22.55;;;8.90;;
61756;SDS011;57225;61.460;24.060;2023-01-10T05:15:58;22.00;;;8.77;;
61756;SDS011;57225;61.460;24.060;2023-01-10T05:18:43;23.38;;;9.65;;
61756;SDS011;57225;61.460;24.060;2023-01-10T05:21:27;22.52;;;8.68;;
61756;SDS011;57225;61.460;24.060;2023-01-10T05:24:12;20.95;;;8.98;;
61756;SDS011;57225;61.460;24.060;2023-01-10T05:26:56;24.20;;;8.75;;
61756;SDS011;57225;61.460;24.060;2023-01-10T05:29:40;25.67;;;9.32;;
61756;SDS011;57225;61.460;24.060;2023-01-10T05:32:28;23.65;;;8.88;;
61756;SDS011;57225;61.460;24.060;2023-01-10T05:35:13;22.60;;;9.15;;
61756;SDS011;57225;61.460;24.060;2023-01-10T05:37:57;28.55;;;9.15;;
61756;SDS011;57225;61.460;24.060;2023-01-10T05:40:42;25.05;;;9.23;;
61756;SDS011;57225;61.460;24.060;2023-01-10T05:43:26;22.38;;;8.45;;
61756;SDS011;57225;61.460;24.060;2023-01-10T05:46:11;20.23;;;8.10;;
61756;SDS011;57225;61.460;24.060;2023-01-10T05:48:56;24.95;;;8.77;;
61756;SDS011;57225;61.460;24.060;2023-01-10T05:51:40;20.20;;;7.70;;
61756;SDS011;57225;61.460;24.060;2023-01-10T05:54:25;23.50;;;8.55;;
61756;SDS011;57225;61.460;24.060;2023-01-10T05:57:09;18.48;;;7.65;;
61756;SDS011;57225;61.460;24.060;2023-01-10T05:59:53;24.48;;;8.10;;
61756;SDS011;57225;61.460;24.060;2023-01-10T06:02:38;19.52;;;7.57;;
61756;SDS011;57225;61.460;24.060;2023-01-10T06:05:23;25.80;;;8.98;;
61756;SDS011;57225;61.460;24.060;2023-01-10T06:08:07;26.70;;;8.32;;
61756;SDS011;57225;61.460;24.060;2023-01-10T06:10:52;19.63;;;7.78;;
61756;SDS011;57225;61.460;24.060;2023-01-10T06:13:36;19.30;;;7.85;;
61756;SDS011;57225;61.460;24.060;2023-01-10T06:16:21;20.88;;;7.93;;
61756;SDS011;57225;61.460;24.060;2023-01-10T06:19:05;17.90;;;7.70;;
61756;SDS011;57225;61.460;24.060;2023-01-10T06:21:50;19.83;;;8.20;;
61756;SDS011;57225;61.460;24.060;2023-01-10T06:24:34;21.40;;;7.63;;
61756;SDS011;57225;61.460;24.060;2023-01-10T06:27:19;18.30;;;7.25;;
61756;SDS011;57225;61.460;24.060;2023-01-10T06:30:03;18.27;;;7.70;;
61756;SDS011;57225;61.460;24.060;2023-01-10T06:32:48;19.80;;;7.13;;
61756;SDS011;57225;61.460;24.060;2023-01-10T06:35:33;20.00;;;8.15;;
61756;SDS011;57225;61.460;24.060;2023-01-10T06:55:40;23.52;;;7.65;;
61756;SDS011;57225;61.460;24.060;2023-01-10T06:58:24;23.52;;;7.85;;
61756;SDS011;57225;61.460;24.060;2023-01-10T07:01:12;22.38;;;8.45;;
61756;SDS011;57225;61.460;24.060;2023-01-10T07:03:58;22.50;;;8.40;;
61756;SDS011;57225;61.460;24.060;2023-01-10T07:06:42;18.50;;;7.57;;
61756;SDS011;57225;61.460;24.060;2023-01-10T07:09:27;18.60;;;7.60;;
61756;SDS011;57225;61.460;24.060;2023-01-10T07:12:12;20.52;;;8.15;;
61756;SDS011;57225;61.460;24.060;2023-01-10T07:14:56;23.20;;;7.72;;
61756;SDS011;57225;61.460;24.060;2023-01-10T07:17:41;20.48;;;7.57;;
61756;SDS011;57225;61.460;24.060;2023-01-10T07:20:26;18.83;;;7.50;;
61756;SDS011;57225;61.460;24.060;2023-01-10T07:23:10;18.33;;;7.70;;
61756;SDS011;57225;61.460;24.060;2023-01-10T07:25:55;23.42;;;7.90;;
61756;SDS011;57225;61.460;24.060;2023-01-10T07:28:40;18.40;;;7.47;;
61756;SDS011;57225;61.460;24.060;2023-01-10T07:31:25;19.60;;;7.03;;
61756;SDS011;57225;61.460;24.060;2023-01-10T07:34:09;19.00;;;6.93;;
61756;SDS011;57225;61.460;24.060;2023-01-10T07:36:54;18.75;;;7.93;;
61756;SDS011;57225;61.460;24.060;2023-01-10T07:39:39;15.82;;;6.60;;
61756;SDS011;57225;61.460;24.060;2023-01-10T07:42:24;18.55;;;7.40;;
61756;SDS011;57225;61.460;24.060;2023-01-10T07:45:09;18.08;;;7.18;;
61756;SDS011;57225;61.460;24.060;2023-01-10T07:47:57;16.67;;;7.00;;
61756;SDS011;57225;61.460;24.060;2023-01-10T07:50:43;15.38;;;6.38;;
61756;SDS011;57225;61.460;24.060;2023-01-10T07:53:27;14.90;;;6.28;;
61756;SDS011;57225;61.460;24.060;2023-01-10T07:56:12;23.65;;;6.55;;
61756;SDS011;57225;61.460;24.060;2023-01-10T07:58:56;19.52;;;6.38;;
61756;SDS011;57225;61.460;24.060;2023-01-10T08:01:41;19.30;;;7.32;;
61756;SDS011;57225;61.460;24.060;2023-01-10T08:04:25;22.15;;;6.68;;
61756;SDS011;57225;61.460;24.060;2023-01-10T08:07:10;19.73;;;6.72;;
61756;SDS011;57225;61.460;24.060;2023-01-10T08:09:54;20.30;;;6.60;;
61756;SDS011;57225;61.460;24.060;2023-01-10T08:12:39;17.70;;;6.68;;
61756;SDS011;57225;61.460;24.060;2023-01-10T08:15:23;19.17;;;6.43;;
61756;SDS011;57225;61.460;24.060;2023-01-10T08:18:07;17.45;;;6.30;;
61756;SDS011;57225;61.460;24.060;2023-01-10T08:20:53;17.73;;;6.70;;
61756;SDS011;57225;61.460;24.060;2023-01-10T08:23:38;16.20;;;6.95;;
61756;SDS011;57225;61.460;24.060;2023-01-10T08:26:23;18.10;;;7.10;;
61756;SDS011;57225;61.460;24.060;2023-01-10T08:29:07;14.77;;;6.38;;
61756;SDS011;57225;61.460;24.060;2023-01-10T08:31:52;17.20;;;6.70;;
61756;SDS011;57225;61.460;24.060;2023-01-10T08:34:36;19.63;;;6.63;;
61756;SDS011;57225;61.460;24.060;2023-01-10T08:37:21;13.88;;;5.63;;
61756;SDS011;57225;61.460;24.060;2023-01-10T08:40:05;20.83;;;7.10;;
61756;SDS011;57225;61.460;24.060;2023-01-10T08:42:57;21.27;;;6.90;;
61756;SDS011;57225;61.460;24.060;2023-01-10T08:45:43;22.77;;;7.63;;
61756;SDS011;57225;61.460;24.060;2023-01-10T08:48:27;24.52;;;7.25;;
61756;SDS011;57225;61.460;24.060;2023-01-10T08:51:12;18.02;;;7.30;;
61756;SDS011;57225;61.460;24.060;2023-01-10T08:53:56;15.75;;;5.88;;
61756;SDS011;57225;61.460;24.060;2023-01-10T08:56:40;18.90;;;6.43;;
61756;SDS011;57225;61.460;24.060;2023-01-10T08:59:25;21.52;;;6.38;;
61756;SDS011;57225;61.460;24.060;2023-01-10T09:02:11;20.27;;;7.13;;
61756;SDS011;57225;61.460;24.060;2023-01-10T09:04:55;14.38;;;5.65;;
61756;SDS011;57225;61.460;24.060;2023-01-10T09:07:40;14.85;;;6.20;;
61756;SDS011;57225;61.460;24.060;2023-01-10T09:10:24;20.77;;;6.20;;
61756;SDS011;57225;61.460;24.060;2023-01-10T09:13:09;19.88;;;6.38;;
61756;SDS011;57225;61.460;24.060;2023-01-10T09:15:54;17.80;;;6.65;;
61756;SDS011;57225;61.460;24.060;2023-01-10T09:18:39;16.17;;;6.18;;
61756;SDS011;57225;61.460;24.060;2023-01-10T09:21:23;16.02;;;5.97;;
61756;SDS011;57225;61.460;24.060;2023-01-10T09:24:08;16.27;;;6.18;;
61756;SDS011;57225;61.460;24.060;2023-01-10T09:26:52;19.70;;;6.20;;
61756;SDS011;57225;61.460;24.060;2023-01-10T09:29:37;20.63;;;6.50;;
61756;SDS011;57225;61.460;24.060;2023-01-10T09:32:21;17.48;;;6.78;;
61756;SDS011;57225;61.460;24.060;2023-01-10T09:35:06;13.70;;;6.10;;
61756;SDS011;57225;61.460;24.060;2023-01-10T09:37:57;18.63;;;6.38;;
61756;SDS011;57225;61.460;24.060;2023-01-10T09:40:52;15.70;;;5.85;;
61756;SDS011;57225;61.460;24.060;2023-01-10T09:44:14;17.48;;;6.80;;
61756;SDS011;57225;61.460;24.060;2023-01-10T09:53:57;17.02;;;6.00;;
61756;SDS011;57225;61.460;24.060;2023-01-10T09:56:44;16.75;;;5.82;;
61756;SDS011;57225;61.460;24.060;2023-01-10T09:59:34;18.02;;;5.82;;
61756;SDS011;57225;61.460;24.060;2023-01-10T10:02:31;16.77;;;5.55;;
61756;SDS011;57225;61.460;24.060;2023-01-10T10:05:24;16.20;;;5.63;;
61756;SDS011;57225;61.460;24.060;2023-01-10T10:08:13;17.83;;;7.00;;
61756;SDS011;57225;61.460;24.060;2023-01-10T10:17:05;18.13;;;6.57;;
61756;SDS011;57225;61.460;24.060;2023-01-10T10:26:32;18.13;;;5.45;;
61756;SDS011;57225;61.460;24.060;2023-01-10T10:29:22;16.98;;;6.05;;
61756;SDS011;57225;61.460;24.060;2023-01-10T10:32:32;15.30;;;6.10;;
61756;SDS011;57225;61.460;24.060;2023-01-10T10:35:31;16.58;;;5.63;;
61756;SDS011;57225;61.460;24.060;2023-01-10T10:38:33;16.63;;;5.85;;
61756;SDS011;57225;61.460;24.060;2023-01-10T10:41:32;23.63;;;6.90;;
61756;SDS011;57225;61.460;24.060;2023-01-10T10:47:18;16.48;;;6.05;;
61756;SDS011;57225;61.460;24.060;2023-01-10T10:52:59;16.25;;;5.88;;
61756;SDS011;57225;61.460;24.060;2023-01-10T10:55:45;18.17;;;6.25;;
61756;SDS011;57225;61.460;24.060;2023-01-10T10:58:31;18.88;;;6.72;;
61756;SDS011;57225;61.460;24.060;2023-01-10T11:01:15;13.07;;;5.80;;
61756;SDS011;57225;61.460;24.060;2023-01-10T11:04:06;14.50;;;6.05;;
61756;SDS011;57225;61.460;24.060;2023-01-10T11:06:53;18.15;;;6.47;;
61756;SDS011;57225;61.460;24.060;2023-01-10T11:09:38;18.40;;;6.95;;
61756;SDS011;57225;61.460;24.060;2023-01-10T11:12:25;16.00;;;6.38;;
61756;SDS011;57225;61.460;24.060;2023-01-10T11:15:36;16.85;;;7.05;;
61756;SDS011;57225;61.460;24.060;2023-01-10T11:18:27;17.27;;;6.82;;
61756;SDS011;57225;61.460;24.060;2023-01-10T11:21:13;18.05;;;6.43;;
61756;SDS011;57225;61.460;24.060;2023-01-10T11:24:00;15.15;;;6.15;;
61756;SDS011;57225;61.460;24.060;2023-01-10T11:26:44;15.95;;;6.10;;
61756;SDS011;57225;61.460;24.060;2023-01-10T11:30:05;15.98;;;6.28;;
61756;SDS011;57225;61.460;24.060;2023-01-10T11:35:38;14.85;;;6.43;;
61756;SDS011;57225;61.460;24.060;2023-01-10T11:38:24;15.85;;;6.25;;
61756;SDS011;57225;61.460;24.060;2023-01-10T11:44:33;17.20;;;6.00;;
61756;SDS011;57225;61.460;24.060;2023-01-10T11:47:11;19.90;;;5.97;;
61756;SDS011;57225;61.460;24.060;2023-01-10T11:49:58;15.93;;;6.10;;
61756;SDS011;57225;61.460;24.060;2023-01-10T11:52:43;14.85;;;6.53;;
61756;SDS011;57225;61.460;24.060;2023-01-10T11:55:31;15.30;;;6.47;;
61756;SDS011;57225;61.460;24.060;2023-01-10T11:58:19;20.70;;;7.25;;
61756;SDS011;57225;61.460;24.060;2023-01-10T12:01:04;14.55;;;6.32;;
61756;SDS011;57225;61.460;24.060;2023-01-10T12:03:49;17.70;;;6.88;;
61756;SDS011;57225;61.460;24.060;2023-01-10T12:06:33;17.08;;;6.55;;
61756;SDS011;57225;61.460;24.060;2023-01-10T12:12:15;20.15;;;7.57;;
61756;SDS011;57225;61.460;24.060;2023-01-10T12:15:22;19.40;;;7.32;;
61756;SDS011;57225;61.460;24.060;2023-01-10T12:18:11;18.10;;;6.85;;
61756;SDS011;57225;61.460;24.060;2023-01-10T12:20:55;15.88;;;6.45;;
61756;SDS011;57225;61.460;24.060;2023-01-10T12:23:43;16.67;;;6.60;;
61756;SDS011;57225;61.460;24.060;2023-01-10T12:26:31;17.92;;;7.20;;
61756;SDS011;57225;61.460;24.060;2023-01-10T12:29:18;18.27;;;7.03;;
61756;SDS011;57225;61.460;24.060;2023-01-10T12:32:12;20.20;;;7.43;;
61756;SDS011;57225;61.460;24.060;2023-01-10T12:35:08;19.58;;;7.43;;
61756;SDS011;57225;61.460;24.060;2023-01-10T12:38:02;21.73;;;7.90;;
61756;SDS011;57225;61.460;24.060;2023-01-10T12:43:41;16.92;;;7.22;;
61756;SDS011;57225;61.460;24.060;2023-01-10T12:46:46;18.80;;;7.47;;
61756;SDS011;57225;61.460;24.060;2023-01-10T12:50:12;18.25;;;8.27;;
61756;SDS011;57225;61.460;24.060;2023-01-10T12:53:02;19.33;;;7.70;;
61756;SDS011;57225;61.460;24.060;2023-01-10T12:56:01;20.45;;;7.60;;
61756;SDS011;57225;61.460;24.060;2023-01-10T12:58:54;19.58;;;7.15;;
61756;SDS011;57225;61.460;24.060;2023-01-10T13:01:48;21.98;;;8.55;;
61756;SDS011;57225;61.460;24.060;2023-01-10T13:04:36;22.50;;;7.88;;
61756;SDS011;57225;61.460;24.060;2023-01-10T13:07:23;22.52;;;8.18;;
61756;SDS011;57225;61.460;24.060;2023-01-10T13:10:13;18.85;;;8.10;;
61756;SDS011;57225;61.460;24.060;2023-01-10T13:13:21;23.15;;;8.80;;
61756;SDS011;57225;61.460;24.060;2023-01-10T13:22:19;23.80;;;8.67;;
61756;SDS011;57225;61.460;24.060;2023-01-10T13:25:05;20.65;;;8.65;;
61756;SDS011;57225;61.460;24.060;2023-01-10T13:28:02;21.27;;;8.60;;
61756;SDS011;57225;61.460;24.060;2023-01-10T13:30:53;20.77;;;8.65;;
61756;SDS011;57225;61.460;24.060;2023-01-10T13:33:49;23.77;;;9.40;;
61756;SDS011;57225;61.460;24.060;2023-01-10T13:36:38;17.98;;;7.68;;
61756;SDS011;57225;61.460;24.060;2023-01-10T13:39:42;25.20;;;8.68;;
61756;SDS011;57225;61.460;24.060;2023-01-10T13:42:33;22.77;;;8.73;;
61756;SDS011;57225;61.460;24.060;2023-01-10T13:45:37;23.73;;;8.90;;
61756;SDS011;57225;61.460;24.060;2023-01-10T13:48:26;27.52;;;9.93;;
61756;SDS011;57225;61.460;24.060;2023-01-10T13:51:20;24.67;;;9.57;;
61756;SDS011;57225;61.460;24.060;2023-01-10T13:54:23;28.13;;;9.25;;
61756;SDS011;57225;61.460;24.060;2023-01-10T13:58:38;24.30;;;9.07;;
61756;SDS011;57225;61.460;24.060;2023-01-10T14:03:55;20.88;;;8.80;;
61756;SDS011;57225;61.460;24.060;2023-01-10T14:06:41;22.45;;;9.38;;
61756;SDS011;57225;61.460;24.060;2023-01-10T14:15:28;26.08;;;9.70;;
61756;SDS011;57225;61.460;24.060;2023-01-10T14:18:18;23.15;;;9.00;;
61756;SDS011;57225;61.460;24.060;2023-01-10T14:21:07;29.45;;;9.80;;
61756;SDS011;57225;61.460;24.060;2023-01-10T14:23:53;28.77;;;9.77;;
61756;SDS011;57225;61.460;24.060;2023-01-10T14:26:41;25.08;;;9.75;;
61756;SDS011;57225;61.460;24.060;2023-01-10T14:29:29;27.65;;;9.05;;
61756;SDS011;57225;61.460;24.060;2023-01-10T14:32:49;23.05;;;9.85;;
61756;SDS011;57225;61.460;24.060;2023-01-10T14:35:32;24.92;;;8.90;;
61756;SDS011;57225;61.460;24.060;2023-01-10T14:38:27;24.17;;;9.50;;
61756;SDS011;57225;61.460;24.060;2023-01-10T14:41:21;24.00;;;10.23;;
61756;SDS011;57225;61.460;24.060;2023-01-10T14:44:26;28.98;;;9.45;;
61756;SDS011;57225;61.460;24.060;2023-01-10T14:47:28;30.95;;;10.00;;
61756;SDS011;57225;61.460;24.060;2023-01-10T14:50:50;24.80;;;10.25;;
61756;SDS011;57225;61.460;24.060;2023-01-10T14:53:28;27.35;;;9.10;;
61756;SDS011;57225;61.460;24.060;2023-01-10T14:56:20;26.33;;;10.27;;
61756;SDS011;57225;61.460;24.060;2023-01-10T14:59:29;26.35;;;10.77;;
61756;SDS011;57225;61.460;24.060;2023-01-10T15:02:18;23.13;;;9.85;;
61756;SDS011;57225;61.460;24.060;2023-01-10T15:05:14;23.42;;;10.05;;
61756;SDS011;57225;61.460;24.060;2023-01-10T15:11:09;25.95;;;10.50;;
61756;SDS011;57225;61.460;24.060;2023-01-10T15:13:58;25.50;;;9.88;;
61756;SDS011;57225;61.460;24.060;2023-01-10T15:16:46;23.58;;;9.93;;
61756;SDS011;57225;61.460;24.060;2023-01-10T15:19:33;21.33;;;9.85;;
61756;SDS011;57225;61.460;24.060;2023-01-10T15:22:33;24.70;;;9.90;;
61756;SDS011;57225;61.460;24.060;2023-01-10T15:28:03;23.42;;;9.98;;
61756;SDS011;57225;61.460;24.060;2023-01-10T15:30:55;24.05;;;9.98;;
61756;SDS011;57225;61.460;24.060;2023-01-10T15:33:45;23.60;;;9.82;;
61756;SDS011;57225;61.460;24.060;2023-01-10T15:36:43;24.25;;;9.63;;
61756;SDS011;57225;61.460;24.060;2023-01-10T15:39:40;25.52;;;9.70;;
61756;SDS011;57225;61.460;24.060;2023-01-10T15:42:24;24.15;;;10.27;;
61756;SDS011;57225;61.460;24.060;2023-01-10T15:45:17;32.25;;;10.60;;
61756;SDS011;57225;61.460;24.060;2023-01-10T15:48:05;26.48;;;11.02;;
61756;SDS011;57225;61.460;24.060;2023-01-10T15:51:13;31.00;;;10.88;;
61756;SDS011;57225;61.460;24.060;2023-01-10T15:57:03;29.17;;;11.20;;
61756;SDS011;57225;61.460;24.060;2023-01-10T15:59:50;26.30;;;10.30;;
61756;SDS011;57225;61.460;24.060;2023-01-10T16:02:34;23.65;;;11.13;;
61756;SDS011;57225;61.460;24.060;2023-01-10T16:05:20;29.60;;;11.35;;
61756;SDS011;57225;61.460;24.060;2023-01-10T16:08:05;31.92;;;11.45;;
61756;SDS011;57225;61.460;24.060;2023-01-10T16:10:54;28.67;;;12.20;;
61756;SDS011;57225;61.460;24.060;2023-01-10T16:13:41;27.90;;;11.23;;
61756;SDS011;57225;61.460;24.060;2023-01-10T16:16:25;28.77;;;11.45;;
61756;SDS011;57225;61.460;24.060;2023-01-10T16:19:09;25.73;;;11.60;;
61756;SDS011;57225;61.460;24.060;2023-01-10T16:21:54;30.55;;;12.07;;
61756;SDS011;57225;61.460;24.060;2023-01-10T16:24:43;30.77;;;12.40;;
61756;SDS011;57225;61.460;24.060;2023-01-10T16:27:27;34.63;;;13.50;;
61756;SDS011;57225;61.460;24.060;2023-01-10T16:30:13;28.05;;;11.85;;
61756;SDS011;57225;61.460;24.060;2023-01-10T16:33:08;27.50;;;11.55;;
61756;SDS011;57225;61.460;24.060;2023-01-10T16:35:55;29.17;;;11.70;;
61756;SDS011;57225;61.460;24.060;2023-01-10T16:38:40;27.63;;;11.57;;
61756;SDS011;57225;61.460;24.060;2023-01-10T16:41:26;32.38;;;12.73;;
61756;SDS011;57225;61.460;24.060;2023-01-10T16:44:29;28.20;;;11.75;;
61756;SDS011;57225;61.460;24.060;2023-01-10T16:47:15;32.08;;;12.27;;
61756;SDS011;57225;61.460;24.060;2023-01-10T16:49:59;32.10;;;13.35;;
61756;SDS011;57225;61.460;24.060;2023-01-10T16:52:43;35.40;;;12.32;;
61756;SDS011;57225;61.460;24.060;2023-01-10T16:55:32;26.95;;;11.88;;
61756;SDS011;57225;61.460;24.060;2023-01-10T16:58:19;32.38;;;13.23;;
61756;SDS011;57225;61.460;24.060;2023-01-10T17:01:03;33.95;;;13.20;;
61756;SDS011;57225;61.460;24.060;2023-01-10T17:03:49;30.42;;;12.60;;
61756;SDS011;57225;61.460;24.060;2023-01-10T17:06:34;28.02;;;11.60;;
61756;SDS011;57225;61.460;24.060;2023-01-10T17:09:27;34.08;;;12.20;;
61756;SDS011;57225;61.460;24.060;2023-01-10T17:12:13;29.80;;;12.57;;
61756;SDS011;57225;61.460;24.060;2023-01-10T17:15:03;34.15;;;12.77;;
61756;SDS011;57225;61.460;24.060;2023-01-10T17:17:48;33.88;;;13.13;;
61756;SDS011;57225;61.460;24.060;2023-01-10T17:20:33;33.78;;;13.25;;
61756;SDS011;57225;61.460;24.060;2023-01-10T17:23:17;38.80;;;12.98;;
61756;SDS011;57225;61.460;24.060;2023-01-10T17:26:03;31.83;;;13.35;;
61756;SDS011;57225;61.460;24.060;2023-01-10T17:28:48;41.08;;;14.10;;
61756;SDS011;57225;61.460;24.060;2023-01-10T17:31:32;33.63;;;13.25;;
61756;SDS011;57225;61.460;24.060;2023-01-10T17:34:17;35.30;;;12.73;;
61756;SDS011;57225;61.460;24.060;2023-01-10T17:37:02;32.58;;;12.55;;
61756;SDS011;57225;61.460;24.060;2023-01-10T17:39:47;36.95;;;13.73;;
61756;SDS011;57225;61.460;24.060;2023-01-10T17:42:31;36.80;;;13.93;;
61756;SDS011;57225;61.460;24.060;2023-01-10T17:45:16;31.60;;;13.25;;
61756;SDS011;57225;61.460;24.060;2023-01-10T17:48:02;34.78;;;13.13;;
61756;SDS011;57225;61.460;24.060;2023-01-10T17:50:47;38.97;;;14.32;;
61756;SDS011;57225;61.460;24.060;2023-01-10T17:53:38;30.65;;;12.68;;
61756;SDS011;57225;61.460;24.060;2023-01-10T17:56:23;34.65;;;13.15;;
61756;SDS011;57225;61.460;24.060;2023-01-10T17:59:07;30.70;;;12.32;;
61756;SDS011;57225;61.460;24.060;2023-01-10T18:01:52;33.35;;;12.13;;
61756;SDS011;57225;61.460;24.060;2023-01-10T18:04:36;32.05;;;12.73;;
61756;SDS011;57225;61.460;24.060;2023-01-10T18:07:21;33.25;;;12.27;;
61756;SDS011;57225;61.460;24.060;2023-01-10T18:10:05;25.25;;;11.52;;
61756;SDS011;57225;61.460;24.060;2023-01-10T18:12:51;28.77;;;11.98;;
61756;SDS011;57225;61.460;24.060;2023-01-10T18:15:38;32.08;;;13.02;;
61756;SDS011;57225;61.460;24.060;2023-01-10T18:21:11;30.23;;;11.13;;